Portada
METAR-TAF:

METAR-TAF

Aeroports :

Greenville, Mississipí, Estats Units d'Amèrica

latitud: 33-28-58N, longitud: 090-59-08W, altitud: 40 m

Observació

L'informe es va fer fa 53 minuts, a les 12:53 UTC
Vent 8 kt del Nord/Nord-Est
Temperatura 22°C
Humitat 69%
Pressió 1020 hPa
Visibilitat: 16.1 km
Cel clar

METAR: KGLH 301253Z 02008KT 10SM CLR 22/16 A3013 RMK AO2 SLP206 T02170156

Hora: 08:46 (13:46 UTC)

Pronòstic

L'informe es va fer fa 2 hores i 26 minuts, a les 11:20 UTC
Pronòstic vàlid del 30 a les 12 UTC al 31 a les 12 UTC
Vent 7 kt del Nord/Nord-Est
Visibilitat: 10 km
Cel clar

TAF: KGLH 301120Z 3012/3112 02007KT P6SM SKC

Observacions i pronòstics meteorològics de més de 4000 aeroports (METAR i TAF).

Les estacions disponibles són els punts grocs i vermells al mapa.

Posi el ratolí al punt desitjat per veure el nom de l'estació.

Feu clic per veure les observacions i els pronòstics meteorològics.

Per canviar el mapa: feu clic els botons verds amb una creu de color negre per apropar; al botó verd amb un guió per allunyar la imatge; o en les fletxes verdes per a mapes adjacents.


METAR-TAF: